Time;durP1;ratioP1;P1;durP2;ratioP2;P2;SDS_P1;SDS_P2;PMS_P1;PMS_P2;Temp;Humidity;BMP_temperature;BMP_pressure;BME280_temperature;BME280_humidity;BME280_pressure;Samples;Min_cycle;Max_cycle;Signal;HPM_P1;HPM_P2
2022/03/06 00:00:07;;;;;;;36.20;19.17;;;;;;;;;;5053925;28;20116;-59
2022/03/06 00:02:33;;;;;;;34.65;19.75;;;;;;;;;;5054185;28;20082;-58
2022/03/06 00:04:59;;;;;;;35.53;19.55;;;;;;;;;;5053898;28;20061;-60
2022/03/06 00:07:25;;;;;;;33.90;19.23;;;;;;;;;;5053917;28;20025;-58
2022/03/06 00:09:51;;;;;;;35.83;20.02;;;;;;;;;;5053922;28;20024;-59
2022/03/06 00:12:17;;;;;;;35.70;19.50;;;;;;;;;;5053795;28;20086;-59
2022/03/06 00:14:43;;;;;;;36.95;19.83;;;;;;;;;;5053350;28;20043;-59
2022/03/06 00:17:09;;;;;;;34.13;19.55;;;;;;;;;;5053518;28;20041;-59
2022/03/06 00:19:35;;;;;;;34.95;19.00;;;;;;;;;;5053561;28;20051;-58
2022/03/06 00:22:02;;;;;;;34.80;20.00;;;;;;;;;;5054054;28;20052;-59
2022/03/06 00:24:28;;;;;;;34.70;19.50;;;;;;;;;;5053417;28;20501;-58
2022/03/06 00:26:54;;;;;;;35.80;20.33;;;;;;;;;;5053678;28;20021;-59
2022/03/06 00:29:20;;;;;;;35.58;20.77;;;;;;;;;;5053413;28;20028;-59
2022/03/06 00:31:46;;;;;;;34.60;19.30;;;;;;;;;;5053572;28;20052;-59
2022/03/06 00:34:12;;;;;;;34.65;19.50;;;;;;;;;;5053412;28;20053;-59
2022/03/06 00:36:38;;;;;;;35.83;20.85;;;;;;;;;;5053325;28;20460;-59
2022/03/06 00:39:04;;;;;;;36.15;20.85;;;;;;;;;;5053399;28;20108;-59
2022/03/06 00:41:30;;;;;;;37.58;20.60;;;;;;;;;;5053368;28;20039;-59
2022/03/06 00:43:57;;;;;;;33.90;19.05;;;;;;;;;;5053246;28;20458;-58
2022/03/06 00:46:23;;;;;;;35.85;19.58;;;;;;;;;;5053174;28;20025;-60
2022/03/06 00:48:49;;;;;;;35.00;19.92;;;;;;;;;;5053196;28;20112;-60
2022/03/06 00:51:15;;;;;;;34.83;19.67;;;;;;;;;;5053120;28;20036;-58
2022/03/06 00:53:42;;;;;;;35.45;19.95;;;;;;;;;;5053284;28;20022;-59
2022/03/06 00:56:08;;;;;;;36.03;19.73;;;;;;;;;;5053181;28;20074;-59
2022/03/06 00:58:34;;;;;;;36.30;20.45;;;;;;;;;;5052948;28;20040;-58
2022/03/06 01:01:00;;;;;;;35.03;19.83;;;;;;;;;;5052986;28;20035;-59
2022/03/06 01:03:26;;;;;;;34.85;19.75;;;;;;;;;;5053179;28;20124;-60
2022/03/06 01:05:52;;;;;;;35.53;20.13;;;;;;;;;;5053054;28;20135;-60
2022/03/06 01:08:18;;;;;;;35.17;19.55;;;;;;;;;;5052967;28;20116;-64
2022/03/06 01:10:45;;;;;;;35.60;19.83;;;;;;;;;;5052620;28;20032;-59
2022/03/06 01:13:11;;;;;;;34.85;19.38;;;;;;;;;;5052953;28;20381;-59
2022/03/06 01:15:38;;;;;;;35.03;20.63;;;;;;;;;;5052905;28;20037;-59
2022/03/06 01:18:06;;;;;;;35.88;20.08;;;;;;;;;;5052809;28;20043;-59
2022/03/06 01:20:32;;;;;;;38.05;20.33;;;;;;;;;;5052762;28;20029;-59
2022/03/06 01:22:58;;;;;;;36.00;19.67;;;;;;;;;;5052974;28;20033;-60
2022/03/06 01:25:24;;;;;;;36.45;19.95;;;;;;;;;;5052545;28;20029;-59
2022/03/06 01:27:50;;;;;;;36.88;20.92;;;;;;;;;;5053169;28;20028;-64
2022/03/06 01:30:17;;;;;;;35.55;20.42;;;;;;;;;;5052605;28;20146;-64
2022/03/06 01:32:43;;;;;;;32.67;19.10;;;;;;;;;;5053074;28;20385;-64
2022/03/06 01:35:09;;;;;;;34.45;19.92;;;;;;;;;;5052773;28;20584;-65
2022/03/06 01:37:35;;;;;;;33.35;19.63;;;;;;;;;;5052599;28;20127;-69
2022/03/06 01:40:01;;;;;;;33.63;19.10;;;;;;;;;;5052450;28;20029;-58
2022/03/06 01:42:27;;;;;;;36.05;19.95;;;;;;;;;;5052513;28;20025;-58
2022/03/06 01:44:53;;;;;;;39.90;20.80;;;;;;;;;;5052685;28;20118;-58
2022/03/06 01:47:32;;;;;;;34.50;19.92;;;;;;;;;;5052881;28;20389;-60
2022/03/06 01:49:58;;;;;;;33.92;19.15;;;;;;;;;;5052562;28;20074;-58
2022/03/06 01:52:24;;;;;;;35.67;19.50;;;;;;;;;;5052527;28;20017;-58
2022/03/06 01:54:50;;;;;;;35.65;19.40;;;;;;;;;;5052398;28;20462;-59
2022/03/06 01:57:16;;;;;;;34.03;19.10;;;;;;;;;;5052380;28;20029;-58
2022/03/06 01:59:42;;;;;;;33.97;19.85;;;;;;;;;;5052680;28;20037;-60
2022/03/06 02:02:08;;;;;;;34.28;19.95;;;;;;;;;;5052550;28;20021;-58
2022/03/06 02:04:34;;;;;;;33.40;19.15;;;;;;;;;;5052627;28;20025;-57
2022/03/06 02:07:00;;;;;;;33.17;19.33;;;;;;;;;;5052449;28;20029;-58
2022/03/06 02:09:27;;;;;;;34.80;18.88;;;;;;;;;;5052231;28;20033;-58
2022/03/06 02:14:38;;;;;;;33.80;18.10;;;;;;;;;;5055911;28;20040;-58
2022/03/06 02:17:04;;;;;;;35.33;19.15;;;;;;;;;;5055751;28;20037;-57
2022/03/06 02:19:30;;;;;;;35.22;18.77;;;;;;;;;;5055900;28;20040;-59
2022/03/06 02:21:56;;;;;;;33.22;19.25;;;;;;;;;;5056237;28;20020;-58
2022/03/06 02:24:22;;;;;;;34.40;18.88;;;;;;;;;;5055636;28;20537;-58
2022/03/06 02:26:48;;;;;;;33.45;18.67;;;;;;;;;;5055602;28;20029;-58
2022/03/06 02:29:14;;;;;;;34.22;18.48;;;;;;;;;;5056008;28;20079;-58
2022/03/06 02:31:40;;;;;;;33.75;18.83;;;;;;;;;;5055695;28;20474;-58
2022/03/06 02:34:06;;;;;;;33.25;18.35;;;;;;;;;;5037964;28;20071;-61
2022/03/06 02:36:32;;;;;;;32.63;17.73;;;;;;;;;;5055532;28;20018;-58
2022/03/06 02:38:59;;;;;;;31.88;17.88;;;;;;;;;;5055137;28;20036;-58
2022/03/06 02:41:25;;;;;;;32.60;18.15;;;;;;;;;;5055636;28;20044;-58
2022/03/06 02:43:50;;;;;;;31.80;17.52;;;;;;;;;;5037687;28;20029;-58
2022/03/06 02:46:16;;;;;;;32.30;18.15;;;;;;;;;;5055653;28;20029;-58
2022/03/06 02:48:43;;;;;;;32.97;17.95;;;;;;;;;;5055379;28;20069;-59
2022/03/06 02:51:09;;;;;;;33.03;17.88;;;;;;;;;;5055639;28;20025;-59
2022/03/06 02:53:35;;;;;;;32.28;18.02;;;;;;;;;;5055031;28;20070;-58
2022/03/06 02:56:02;;;;;;;31.15;17.48;;;;;;;;;;5055427;28;20021;-58
2022/03/06 02:58:28;;;;;;;31.60;17.35;;;;;;;;;;5055291;28;20029;-58
2022/03/06 03:00:54;;;;;;;30.95;17.77;;;;;;;;;;5055327;28;20029;-58
2022/03/06 03:03:20;;;;;;;30.98;17.27;;;;;;;;;;5055153;28;20124;-59
2022/03/06 03:05:47;;;;;;;31.70;17.60;;;;;;;;;;5055198;28;20025;-58
2022/03/06 03:08:13;;;;;;;31.42;16.95;;;;;;;;;;5054730;28;20087;-58
2022/03/06 03:10:39;;;;;;;31.08;17.40;;;;;;;;;;5054993;28;20017;-61
2022/03/06 03:13:05;;;;;;;31.00;17.00;;;;;;;;;;5054957;28;20037;-58
2022/03/06 03:15:31;;;;;;;32.60;17.20;;;;;;;;;;5055231;28;20416;-59
2022/03/06 03:17:57;;;;;;;31.17;16.92;;;;;;;;;;5054693;28;20120;-57
2022/03/06 03:20:23;;;;;;;30.27;16.90;;;;;;;;;;5055200;28;20033;-58
2022/03/06 03:22:49;;;;;;;31.10;17.02;;;;;;;;;;5054421;28;20025;-58
2022/03/06 03:25:15;;;;;;;32.22;17.48;;;;;;;;;;5053899;28;20134;-58
2022/03/06 03:27:41;;;;;;;32.67;18.05;;;;;;;;;;5054641;28;20425;-58
2022/03/06 03:30:09;;;;;;;32.72;16.67;;;;;;;;;;5054721;28;20674;-58
2022/03/06 03:32:35;;;;;;;33.13;17.73;;;;;;;;;;5054562;28;20029;-58
2022/03/06 03:35:01;;;;;;;31.80;17.33;;;;;;;;;;5054867;28;20052;-58
2022/03/06 03:37:27;;;;;;;30.25;16.55;;;;;;;;;;5054251;28;20013;-59
2022/03/06 03:39:54;;;;;;;30.75;16.83;;;;;;;;;;5054472;28;20041;-58
2022/03/06 03:42:20;;;;;;;30.15;16.92;;;;;;;;;;5054517;28;20021;-58
2022/03/06 03:44:46;;;;;;;31.92;17.05;;;;;;;;;;5054230;28;20104;-59
2022/03/06 03:47:12;;;;;;;31.52;17.67;;;;;;;;;;5054468;28;20057;-58
2022/03/06 03:49:38;;;;;;;31.23;16.80;;;;;;;;;;5054141;28;20061;-58
2022/03/06 03:52:04;;;;;;;32.20;17.30;;;;;;;;;;5054048;28;20036;-58
2022/03/06 03:54:30;;;;;;;31.00;16.77;;;;;;;;;;5053988;28;20032;-58
2022/03/06 03:56:56;;;;;;;30.58;16.52;;;;;;;;;;5054212;28;20028;-58
2022/03/06 03:59:22;;;;;;;31.17;16.67;;;;;;;;;;5054046;28;20037;-58
2022/03/06 04:01:48;;;;;;;31.25;16.77;;;;;;;;;;5054321;28;20446;-58
2022/03/06 04:04:14;;;;;;;31.50;17.80;;;;;;;;;;5054271;28;20023;-58
2022/03/06 04:06:40;;;;;;;31.58;16.80;;;;;;;;;;5053479;28;20112;-60
2022/03/06 04:09:06;;;;;;;30.95;17.25;;;;;;;;;;5053967;28;20040;-58
2022/03/06 04:11:32;;;;;;;30.80;16.77;;;;;;;;;;5053991;28;20032;-59
2022/03/06 04:13:58;;;;;;;32.03;17.30;;;;;;;;;;5054032;28;20167;-58
2022/03/06 04:16:24;;;;;;;31.92;16.67;;;;;;;;;;5053557;28;20036;-58
2022/03/06 04:18:50;;;;;;;31.00;17.48;;;;;;;;;;5053475;28;20037;-58
2022/03/06 04:21:16;;;;;;;30.92;16.73;;;;;;;;;;5053529;28;20032;-63
2022/03/06 04:23:42;;;;;;;32.40;17.65;;;;;;;;;;5053681;28;20029;-58
2022/03/06 04:26:08;;;;;;;30.02;16.80;;;;;;;;;;5053599;28;20029;-58
2022/03/06 04:28:35;;;;;;;31.67;17.67;;;;;;;;;;5053840;28;20029;-65
2022/03/06 04:31:01;;;;;;;31.27;17.73;;;;;;;;;;5053472;28;20032;-58
2022/03/06 04:33:27;;;;;;;32.33;17.25;;;;;;;;;;5053478;28;20413;-60
2022/03/06 04:35:53;;;;;;;33.70;19.15;;;;;;;;;;5052918;28;20032;-58
2022/03/06 04:38:19;;;;;;;34.22;18.83;;;;;;;;;;5053336;28;20478;-58
2022/03/06 04:40:46;;;;;;;33.38;18.50;;;;;;;;;;5053315;28;20036;-58
2022/03/06 04:43:13;;;;;;;33.03;18.83;;;;;;;;;;5053653;28;20021;-61
2022/03/06 04:45:39;;;;;;;32.85;18.65;;;;;;;;;;5053263;28;20083;-58
2022/03/06 04:48:05;;;;;;;32.95;18.50;;;;;;;;;;5053820;28;20350;-58
2022/03/06 04:50:31;;;;;;;34.38;18.90;;;;;;;;;;5052801;28;20576;-57
2022/03/06 04:52:57;;;;;;;33.85;18.67;;;;;;;;;;5053211;28;20100;-60
2022/03/06 04:55:23;;;;;;;35.30;19.30;;;;;;;;;;5053155;28;20025;-58
2022/03/06 04:57:49;;;;;;;33.42;18.83;;;;;;;;;;5053104;28;20040;-58
2022/03/06 05:00:16;;;;;;;32.83;18.40;;;;;;;;;;5053182;28;20032;-58
2022/03/06 05:02:42;;;;;;;35.10;19.75;;;;;;;;;;5053381;28;20027;-58
2022/03/06 05:05:09;;;;;;;34.08;19.23;;;;;;;;;;5053067;28;20035;-57
2022/03/06 05:07:35;;;;;;;34.13;18.80;;;;;;;;;;5053245;28;20021;-60
2022/03/06 05:10:01;;;;;;;33.60;18.48;;;;;;;;;;5053297;28;20068;-58
2022/03/06 05:12:27;;;;;;;34.10;19.08;;;;;;;;;;5053140;28;20022;-58
2022/03/06 05:14:53;;;;;;;34.88;19.13;;;;;;;;;;5052682;28;20033;-58
2022/03/06 05:17:19;;;;;;;34.17;18.52;;;;;;;;;;5052521;28;20473;-59
2022/03/06 05:19:45;;;;;;;33.92;19.08;;;;;;;;;;5053196;28;20029;-64
2022/03/06 05:22:11;;;;;;;32.97;18.88;;;;;;;;;;5052829;28;20380;-58
2022/03/06 05:24:37;;;;;;;32.63;18.55;;;;;;;;;;5052786;28;20029;-58
2022/03/06 05:27:03;;;;;;;33.70;19.70;;;;;;;;;;5052900;28;20382;-58
2022/03/06 05:29:29;;;;;;;34.58;18.35;;;;;;;;;;5052888;28;20029;-58
2022/03/06 05:31:55;;;;;;;34.72;19.48;;;;;;;;;;5052381;28;20028;-59
2022/03/06 05:34:21;;;;;;;33.17;18.48;;;;;;;;;;5052885;28;20025;-59
2022/03/06 05:36:47;;;;;;;34.20;18.60;;;;;;;;;;5053020;28;20102;-59
2022/03/06 05:39:13;;;;;;;33.38;17.73;;;;;;;;;;5052813;28;20076;-58
2022/03/06 05:41:39;;;;;;;33.60;18.73;;;;;;;;;;5052584;28;20017;-58
2022/03/06 05:44:05;;;;;;;33.42;18.00;;;;;;;;;;5052949;28;20087;-58
2022/03/06 05:46:31;;;;;;;33.05;18.05;;;;;;;;;;5052374;28;20036;-58
2022/03/06 05:48:57;;;;;;;33.08;17.63;;;;;;;;;;5056383;28;20397;-58
2022/03/06 05:51:23;;;;;;;32.47;17.63;;;;;;;;;;5056599;28;20052;-58
2022/03/06 05:53:49;;;;;;;32.05;17.35;;;;;;;;;;5056435;28;20025;-60
2022/03/06 05:56:15;;;;;;;32.97;17.73;;;;;;;;;;5056508;28;20036;-58
2022/03/06 05:58:41;;;;;;;32.17;17.83;;;;;;;;;;5056359;28;20025;-59
2022/03/06 06:01:07;;;;;;;34.45;18.02;;;;;;;;;;5056047;28;20044;-58
2022/03/06 06:03:33;;;;;;;32.92;18.70;;;;;;;;;;5056455;28;20390;-58
2022/03/06 06:05:59;;;;;;;32.45;17.33;;;;;;;;;;5056163;28;20029;-62
2022/03/06 06:08:25;;;;;;;32.75;17.88;;;;;;;;;;5056315;28;20021;-59
2022/03/06 06:10:51;;;;;;;30.70;16.77;;;;;;;;;;5056162;28;20033;-59
2022/03/06 06:13:19;;;;;;;35.25;17.23;;;;;;;;;;5056143;28;20025;-58
2022/03/06 06:15:45;;;;;;;32.35;17.83;;;;;;;;;;5055708;28;20057;-59
2022/03/06 06:18:11;;;;;;;31.90;17.00;;;;;;;;;;5055811;28;20029;-58
2022/03/06 06:20:37;;;;;;;32.83;17.60;;;;;;;;;;5056085;28;20037;-58
2022/03/06 06:23:04;;;;;;;32.75;16.77;;;;;;;;;;5056146;28;20026;-57
2022/03/06 06:25:30;;;;;;;31.73;16.27;;;;;;;;;;5055985;28;20059;-59
2022/03/06 06:27:56;;;;;;;32.20;16.98;;;;;;;;;;5055768;28;20021;-58
2022/03/06 06:30:22;;;;;;;31.33;16.52;;;;;;;;;;5055596;28;20078;-58
2022/03/06 06:32:48;;;;;;;30.95;17.15;;;;;;;;;;5055678;28;20032;-58
2022/03/06 06:35:14;;;;;;;33.35;16.85;;;;;;;;;;5055855;28;20029;-58
2022/03/06 06:37:40;;;;;;;30.67;16.77;;;;;;;;;;5055904;28;20025;-58
2022/03/06 06:40:06;;;;;;;33.03;16.77;;;;;;;;;;5055625;28;20081;-58
2022/03/06 06:42:32;;;;;;;31.52;16.85;;;;;;;;;;5037670;28;20416;-58
2022/03/06 06:44:58;;;;;;;29.73;16.27;;;;;;;;;;5055283;28;20028;-58
2022/03/06 06:47:24;;;;;;;30.92;16.50;;;;;;;;;;5055753;28;20051;-58
2022/03/06 06:49:50;;;;;;;31.30;16.48;;;;;;;;;;5055440;28;20083;-58
2022/03/06 06:52:16;;;;;;;31.58;16.50;;;;;;;;;;5055421;28;20060;-58
2022/03/06 06:54:42;;;;;;;30.55;15.90;;;;;;;;;;5055429;28;20017;-58
2022/03/06 06:57:08;;;;;;;30.83;16.38;;;;;;;;;;5055238;28;20558;-58
2022/03/06 06:59:34;;;;;;;36.13;16.98;;;;;;;;;;5037080;28;20043;-58
2022/03/06 07:02:00;;;;;;;30.23;16.48;;;;;;;;;;5055430;28;20028;-59
2022/03/06 07:04:26;;;;;;;30.33;15.65;;;;;;;;;;5055100;28;20104;-58
2022/03/06 07:06:52;;;;;;;29.88;15.98;;;;;;;;;;5055107;28;20021;-58
2022/03/06 07:09:18;;;;;;;29.98;15.95;;;;;;;;;;5055138;28;20063;-60
2022/03/06 07:11:44;;;;;;;29.52;15.70;;;;;;;;;;5055132;28;20428;-58
2022/03/06 07:14:10;;;;;;;31.13;14.85;;;;;;;;;;5036808;28;20056;-58
2022/03/06 07:16:36;;;;;;;30.90;15.90;;;;;;;;;;5054766;28;20037;-58
2022/03/06 07:19:02;;;;;;;28.77;14.43;;;;;;;;;;5054702;28;20375;-58
2022/03/06 07:21:28;;;;;;;29.05;15.18;;;;;;;;;;5055020;28;20095;-59
2022/03/06 07:23:54;;;;;;;28.65;14.38;;;;;;;;;;5054748;28;20482;-58
2022/03/06 07:26:20;;;;;;;30.48;15.63;;;;;;;;;;5054867;28;20025;-58
2022/03/06 07:28:46;;;;;;;30.60;15.32;;;;;;;;;;5054120;28;20021;-57
2022/03/06 07:31:12;;;;;;;29.10;13.85;;;;;;;;;;5054853;28;20033;-57
2022/03/06 07:33:38;;;;;;;28.95;15.43;;;;;;;;;;5054868;28;20021;-59
2022/03/06 07:36:05;;;;;;;29.58;14.68;;;;;;;;;;5054813;28;20028;-57
2022/03/06 07:38:31;;;;;;;28.83;14.75;;;;;;;;;;5054366;28;20490;-57
2022/03/06 07:40:57;;;;;;;29.27;14.82;;;;;;;;;;5054441;28;20032;-57
2022/03/06 07:43:23;;;;;;;28.70;14.13;;;;;;;;;;5054157;28;20040;-57
2022/03/06 07:45:49;;;;;;;30.10;14.60;;;;;;;;;;5053738;28;20108;-56
2022/03/06 07:48:15;;;;;;;27.92;14.38;;;;;;;;;;5061083;28;20040;-57
2022/03/06 07:50:41;;;;;;;29.63;14.50;;;;;;;;;;5070884;28;20066;-56
2022/03/06 07:53:08;;;;;;;28.92;14.77;;;;;;;;;;5063721;28;20078;-60
2022/03/06 07:55:34;;;;;;;27.67;13.18;;;;;;;;;;5061233;28;20025;-57
2022/03/06 07:58:00;;;;;;;28.65;13.90;;;;;;;;;;5061652;28;20067;-68
2022/03/06 08:00:26;;;;;;;26.52;12.85;;;;;;;;;;5058617;28;20446;-59
2022/03/06 08:02:55;;;;;;;27.48;13.80;;;;;;;;;;5062659;28;20021;-69
2022/03/06 08:05:21;;;;;;;26.83;14.05;;;;;;;;;;5060588;28;20066;-58
2022/03/06 08:07:47;;;;;;;28.02;13.52;;;;;;;;;;5061091;28;20099;-58
2022/03/06 08:10:13;;;;;;;27.23;12.85;;;;;;;;;;5062359;28;20075;-60
2022/03/06 08:12:40;;;;;;;28.17;13.95;;;;;;;;;;5060808;28;20056;-58
2022/03/06 08:15:08;;;;;;;28.08;14.15;;;;;;;;;;5062467;28;20464;-62
2022/03/06 08:17:34;;;;;;;31.92;14.15;;;;;;;;;;5064055;28;20382;-59
2022/03/06 08:20:00;;;;;;;27.13;13.40;;;;;;;;;;5073485;28;20107;-60
2022/03/06 08:22:26;;;;;;;27.88;13.68;;;;;;;;;;5073468;28;20035;-58
2022/03/06 08:24:54;;;;;;;26.42;13.55;;;;;;;;;;5073619;28;20377;-58
2022/03/06 08:27:21;;;;;;;28.90;15.25;;;;;;;;;;5073316;28;20373;-58
2022/03/06 08:29:48;;;;;;;29.33;14.38;;;;;;;;;;5073482;28;20024;-61
2022/03/06 08:32:14;;;;;;;27.50;13.55;;;;;;;;;;5073437;28;20021;-59
2022/03/06 08:34:40;;;;;;;26.30;13.45;;;;;;;;;;5072145;28;20024;-58
2022/03/06 08:37:06;;;;;;;28.35;13.20;;;;;;;;;;5072993;28;20021;-59
2022/03/06 08:39:32;;;;;;;28.08;13.52;;;;;;;;;;5073222;28;20042;-59
2022/03/06 08:41:58;;;;;;;28.30;13.95;;;;;;;;;;5073101;28;20499;-58
2022/03/06 08:44:24;;;;;;;27.65;14.02;;;;;;;;;;5073193;28;20118;-60
2022/03/06 08:46:50;;;;;;;27.48;13.25;;;;;;;;;;5073138;28;20031;-58
2022/03/06 08:49:16;;;;;;;29.35;14.27;;;;;;;;;;5073305;28;20029;-58
2022/03/06 08:51:42;;;;;;;27.38;13.82;;;;;;;;;;5073237;28;20500;-67
2022/03/06 08:54:09;;;;;;;28.08;14.00;;;;;;;;;;5073144;28;20033;-59
2022/03/06 08:56:35;;;;;;;27.65;13.60;;;;;;;;;;5072870;28;20023;-58
2022/03/06 08:59:01;;;;;;;27.55;13.98;;;;;;;;;;5073227;28;20594;-58
2022/03/06 09:01:27;;;;;;;27.50;14.20;;;;;;;;;;5073081;28;20020;-59
2022/03/06 09:03:53;;;;;;;26.42;13.52;;;;;;;;;;5072877;28;20412;-58
2022/03/06 09:06:19;;;;;;;28.20;13.85;;;;;;;;;;5072920;28;20050;-58
2022/03/06 09:08:45;;;;;;;28.27;14.35;;;;;;;;;;5072922;28;20024;-59
2022/03/06 09:11:11;;;;;;;26.90;13.65;;;;;;;;;;5072961;28;20028;-59
2022/03/06 09:13:37;;;;;;;26.48;12.93;;;;;;;;;;5072916;28;20050;-58
2022/03/06 09:16:04;;;;;;;27.25;14.18;;;;;;;;;;5072590;28;20438;-61
2022/03/06 09:18:30;;;;;;;28.13;13.55;;;;;;;;;;5071541;28;20443;-60
2022/03/06 09:20:56;;;;;;;26.73;13.45;;;;;;;;;;5073102;28;20111;-59
2022/03/06 09:23:22;;;;;;;26.83;13.68;;;;;;;;;;5075563;28;20021;-63
2022/03/06 09:25:48;;;;;;;28.33;13.95;;;;;;;;;;5076694;28;20120;-59
2022/03/06 09:28:15;;;;;;;26.73;13.30;;;;;;;;;;5076713;28;20060;-58
2022/03/06 09:30:42;;;;;;;28.67;13.48;;;;;;;;;;5077132;28;20032;-59
2022/03/06 09:33:08;;;;;;;26.45;13.70;;;;;;;;;;5076815;28;20032;-59
2022/03/06 09:35:35;;;;;;;27.23;13.20;;;;;;;;;;5076898;28;20027;-59
2022/03/06 09:38:01;;;;;;;26.75;13.23;;;;;;;;;;5076845;28;20021;-59
2022/03/06 09:40:28;;;;;;;26.42;12.75;;;;;;;;;;5076405;28;20028;-58
2022/03/06 09:42:55;;;;;;;27.17;13.20;;;;;;;;;;5076556;28;20025;-58
2022/03/06 09:45:22;;;;;;;27.55;13.02;;;;;;;;;;5076250;28;20023;-58
2022/03/06 09:47:49;;;;;;;25.40;12.57;;;;;;;;;;5075610;28;20097;-58
2022/03/06 09:50:15;;;;;;;24.98;12.35;;;;;;;;;;5075570;28;20025;-62
2022/03/06 09:52:41;;;;;;;26.27;12.75;;;;;;;;;;5075631;28;20024;-60
2022/03/06 09:55:08;;;;;;;27.67;13.55;;;;;;;;;;5076251;28;20424;-60
2022/03/06 09:57:34;;;;;;;25.70;12.95;;;;;;;;;;5076420;28;20062;-60
2022/03/06 10:00:00;;;;;;;26.85;12.63;;;;;;;;;;5076292;28;20036;-59
2022/03/06 10:02:26;;;;;;;26.92;13.20;;;;;;;;;;5075697;28;20150;-58
2022/03/06 10:04:52;;;;;;;26.02;13.07;;;;;;;;;;5076293;28;20029;-60
2022/03/06 10:07:19;;;;;;;26.33;12.90;;;;;;;;;;5075945;28;20473;-60
2022/03/06 10:09:45;;;;;;;25.83;12.05;;;;;;;;;;5075970;28;20473;-59
2022/03/06 10:12:27;;;;;;;25.40;12.15;;;;;;;;;;5076057;28;20062;-59
2022/03/06 10:14:57;;;;;;;25.88;11.90;;;;;;;;;;5076032;28;20024;-59
2022/03/06 10:17:24;;;;;;;24.25;12.02;;;;;;;;;;5074091;28;20515;-59
2022/03/06 10:19:50;;;;;;;25.60;12.40;;;;;;;;;;5076183;28;20036;-59
2022/03/06 10:22:16;;;;;;;24.92;12.32;;;;;;;;;;5075627;28;20440;-59
2022/03/06 10:24:55;;;;;;;26.10;12.48;;;;;;;;;;5075494;28;20056;-61
2022/03/06 10:27:40;;;;;;;25.00;11.90;;;;;;;;;;5075750;28;20027;-59
2022/03/06 10:30:26;;;;;;;25.67;12.07;;;;;;;;;;5075924;28;20099;-58
2022/03/06 10:32:52;;;;;;;24.50;11.52;;;;;;;;;;5074803;28;20473;-60
2022/03/06 10:35:18;;;;;;;26.13;11.80;;;;;;;;;;5075771;28;20407;-58
2022/03/06 10:37:44;;;;;;;25.05;11.90;;;;;;;;;;5075650;28;20017;-59
2022/03/06 10:40:14;;;;;;;25.20;12.07;;;;;;;;;;5075501;28;20059;-59
2022/03/06 10:42:41;;;;;;;23.73;11.50;;;;;;;;;;5075353;28;20035;-59
2022/03/06 10:45:09;;;;;;;24.13;11.30;;;;;;;;;;5075469;28;20107;-60
2022/03/06 10:47:47;;;;;;;25.27;11.85;;;;;;;;;;5075282;28;20050;-59
2022/03/06 10:50:13;;;;;;;25.30;11.68;;;;;;;;;;5075563;28;20033;-59
2022/03/06 10:52:42;;;;;;;24.60;11.93;;;;;;;;;;5074772;28;20127;-59
2022/03/06 10:55:08;;;;;;;24.15;11.50;;;;;;;;;;5075214;28;20020;-59
2022/03/06 10:57:34;;;;;;;23.58;10.95;;;;;;;;;;5074941;28;20078;-60
2022/03/06 11:00:01;;;;;;;24.38;11.63;;;;;;;;;;5074672;28;20048;-60
2022/03/06 11:02:27;;;;;;;25.58;11.93;;;;;;;;;;5074528;28;20048;-59
2022/03/06 11:04:56;;;;;;;24.70;11.25;;;;;;;;;;5074884;28;20051;-60
2022/03/06 11:07:23;;;;;;;24.70;11.05;;;;;;;;;;5074545;28;20484;-59
2022/03/06 11:09:50;;;;;;;22.92;10.85;;;;;;;;;;5075207;28;20074;-58
2022/03/06 11:12:17;;;;;;;24.70;11.43;;;;;;;;;;5075033;28;20500;-64
2022/03/06 11:14:43;;;;;;;23.55;10.10;;;;;;;;;;5074754;28;20381;-59
2022/03/06 11:17:09;;;;;;;21.92;9.98;;;;;;;;;;5074724;28;20041;-58
2022/03/06 11:19:36;;;;;;;23.98;10.60;;;;;;;;;;5074730;28;20040;-60
2022/03/06 11:22:14;;;;;;;22.92;10.35;;;;;;;;;;5074796;28;20024;-60
2022/03/06 11:24:43;;;;;;;22.40;9.93;;;;;;;;;;5074711;28;20028;-60
2022/03/06 11:27:36;;;;;;;23.35;10.25;;;;;;;;;;5074707;28;20029;-58
2022/03/06 11:30:07;;;;;;;22.67;9.85;;;;;;;;;;5074629;28;20038;-59
2022/03/06 11:32:35;;;;;;;21.88;9.73;;;;;;;;;;5074099;28;20136;-59
2022/03/06 11:35:23;;;;;;;22.40;10.20;;;;;;;;;;5074095;28;20017;-59
2022/03/06 11:37:49;;;;;;;23.85;10.07;;;;;;;;;;5073969;28;20033;-60
2022/03/06 11:40:34;;;;;;;23.02;10.05;;;;;;;;;;5073935;28;20077;-60
2022/03/06 11:43:00;;;;;;;22.15;9.85;;;;;;;;;;5074392;28;20497;-62
2022/03/06 11:45:44;;;;;;;23.85;9.52;;;;;;;;;;5073465;28;20040;-64
2022/03/06 11:48:12;;;;;;;23.08;9.95;;;;;;;;;;5073823;28;20103;-59
2022/03/06 11:50:38;;;;;;;22.17;9.48;;;;;;;;;;5074079;28;20522;-59
2022/03/06 11:53:20;;;;;;;23.45;9.95;;;;;;;;;;5074321;28;20029;-62
2022/03/06 11:55:47;;;;;;;23.90;9.80;;;;;;;;;;5071630;28;20029;-59
2022/03/06 11:58:13;;;;;;;22.20;9.60;;;;;;;;;;5062413;28;20032;-58
2022/03/06 12:00:39;;;;;;;21.52;9.82;;;;;;;;;;5060888;28;20447;-59
2022/03/06 12:03:05;;;;;;;22.70;9.93;;;;;;;;;;5051871;28;20032;-58
2022/03/06 12:05:54;;;;;;;22.23;9.57;;;;;;;;;;5062966;28;20398;-58
2022/03/06 12:08:23;;;;;;;22.75;9.65;;;;;;;;;;5054312;28;20025;-61
2022/03/06 12:10:49;;;;;;;21.90;9.30;;;;;;;;;;5053125;28;20547;-62
2022/03/06 12:13:19;;;;;;;22.05;9.48;;;;;;;;;;5036030;28;20025;-59
2022/03/06 12:16:00;;;;;;;24.60;10.30;;;;;;;;;;5064655;28;20021;-59
2022/03/06 12:18:26;;;;;;;21.98;9.60;;;;;;;;;;5060149;28;20032;-60
2022/03/06 12:20:52;;;;;;;22.75;9.00;;;;;;;;;;5056303;28;20033;-63
2022/03/06 12:23:28;;;;;;;22.05;9.15;;;;;;;;;;5035863;28;20044;-63
2022/03/06 12:25:55;;;;;;;23.58;9.43;;;;;;;;;;5053569;28;20481;-60
2022/03/06 12:28:23;;;;;;;25.25;8.93;;;;;;;;;;5056823;28;20103;-59
2022/03/06 12:30:49;;;;;;;23.33;9.48;;;;;;;;;;5061170;28;20025;-61
2022/03/06 12:33:26;;;;;;;23.33;9.57;;;;;;;;;;5053281;28;20017;-63
2022/03/06 12:36:06;;;;;;;20.15;8.77;;;;;;;;;;5065606;28;20559;-59
2022/03/06 12:38:33;;;;;;;24.00;9.23;;;;;;;;;;5041987;28;20039;-59
2022/03/06 12:40:59;;;;;;;28.25;9.93;;;;;;;;;;5067554;28;20036;-59
2022/03/06 12:43:26;;;;;;;23.58;10.02;;;;;;;;;;5072410;28;20078;-59
2022/03/06 12:45:52;;;;;;;25.25;9.82;;;;;;;;;;5072642;28;20032;-59
2022/03/06 12:48:18;;;;;;;23.85;9.55;;;;;;;;;;5072725;28;20024;-58
2022/03/06 12:50:44;;;;;;;21.98;8.95;;;;;;;;;;5073206;28;20465;-59
2022/03/06 12:53:15;;;;;;;23.23;8.85;;;;;;;;;;5073304;28;20021;-63
2022/03/06 12:55:41;;;;;;;22.55;8.93;;;;;;;;;;5072900;28;20354;-59
2022/03/06 12:58:07;;;;;;;21.75;8.20;;;;;;;;;;5073450;28;20366;-65
2022/03/06 13:00:34;;;;;;;21.00;8.23;;;;;;;;;;5073009;28;20085;-59
2022/03/06 13:03:01;;;;;;;20.67;8.18;;;;;;;;;;5072806;28;20028;-58
2022/03/06 13:05:29;;;;;;;20.70;7.78;;;;;;;;;;5073316;28;20028;-59
2022/03/06 13:07:55;;;;;;;23.40;7.90;;;;;;;;;;5073224;28;20081;-59
2022/03/06 13:10:22;;;;;;;22.17;7.88;;;;;;;;;;5072897;28;20028;-59
2022/03/06 13:12:51;;;;;;;19.75;7.65;;;;;;;;;;5073226;28;20036;-58
2022/03/06 13:15:17;;;;;;;20.55;7.80;;;;;;;;;;5073117;28;20039;-58
2022/03/06 13:17:47;;;;;;;21.65;8.40;;;;;;;;;;5072783;28;20111;-58
2022/03/06 13:20:15;;;;;;;19.88;7.53;;;;;;;;;;5072776;28;20482;-59
2022/03/06 13:22:41;;;;;;;20.92;7.68;;;;;;;;;;5073344;28;20412;-59
2022/03/06 13:25:08;;;;;;;19.73;7.38;;;;;;;;;;5073314;28;20432;-59
2022/03/06 13:27:35;;;;;;;20.10;7.78;;;;;;;;;;5072848;28;20512;-59
2022/03/06 13:30:04;;;;;;;19.45;7.47;;;;;;;;;;5072911;28;20477;-59
2022/03/06 13:32:32;;;;;;;19.73;7.80;;;;;;;;;;5072547;28;20047;-61
2022/03/06 13:34:58;;;;;;;20.02;7.57;;;;;;;;;;5072925;28;20535;-59
2022/03/06 13:37:53;;;;;;;20.05;8.00;;;;;;;;;;5072892;28;20029;-59
2022/03/06 13:40:23;;;;;;;18.70;7.25;;;;;;;;;;5063600;28;20109;-59
2022/03/06 13:42:49;;;;;;;18.98;7.18;;;;;;;;;;5072600;28;20025;-58
2022/03/06 13:45:15;;;;;;;19.05;7.10;;;;;;;;;;5072567;28;20036;-59
2022/03/06 13:47:49;;;;;;;20.38;7.32;;;;;;;;;;5072472;28;20031;-59
2022/03/06 13:50:22;;;;;;;18.17;7.03;;;;;;;;;;5072796;28;20497;-58
2022/03/06 13:52:49;;;;;;;19.42;7.05;;;;;;;;;;5072897;28;20050;-59
2022/03/06 13:55:15;;;;;;;19.50;7.45;;;;;;;;;;5072743;28;20427;-59
2022/03/06 13:57:58;;;;;;;18.63;7.25;;;;;;;;;;5072456;28;20487;-59
2022/03/06 14:00:25;;;;;;;17.98;7.05;;;;;;;;;;5072571;28;20032;-59
2022/03/06 14:02:58;;;;;;;19.92;6.90;;;;;;;;;;5072522;28;20026;-59
2022/03/06 14:05:28;;;;;;;18.75;6.78;;;;;;;;;;5072569;28;20115;-59
2022/03/06 14:07:54;;;;;;;18.70;7.07;;;;;;;;;;5072672;28;20047;-58
2022/03/06 14:10:38;;;;;;;19.00;7.20;;;;;;;;;;5076299;28;20368;-60
2022/03/06 14:13:03;;;;;;;18.70;6.60;;;;;;;;;;5076226;28;20033;-64
2022/03/06 14:15:33;;;;;;;18.95;6.75;;;;;;;;;;5075817;28;20020;-59
2022/03/06 14:17:59;;;;;;;17.63;6.97;;;;;;;;;;5075837;28;20040;-58
2022/03/06 14:20:25;;;;;;;20.65;6.75;;;;;;;;;;5075954;28;20041;-58